Time;durP1;ratioP1;P1;durP2;ratioP2;P2;SDS_P1;SDS_P2;PMS_P1;PMS_P2;Temp;Humidity;BMP_temperature;BMP_pressure;BME280_temperature;BME280_humidity;BME280_pressure;Samples;Min_cycle;Max_cycle;Signal;HPM_P1;HPM_P2
2022/12/16 00:01:45;;;;;;;;;73.00;52.00;;;;;1.68;100.00;98799.91;6313471;20;3645098;-49
2022/12/16 00:04:16;;;;;;;;;59.50;46.50;;;;;1.64;100.00;98797.47;6311257;20;2500345;-54
2022/12/16 00:06:45;;;;;;;;;70.67;49.00;;;;;1.66;100.00;98792.94;6284957;20;2884094;-50
2022/12/16 00:09:14;;;;;;;;;62.00;46.00;;;;;1.76;100.00;98789.03;6312930;20;2860948;-48
2022/12/16 00:11:43;;;;;;;;;59.50;43.50;;;;;1.71;100.00;98793.63;6283793;20;2862871;-51
2022/12/16 00:14:12;;;;;;;;;67.00;49.67;;;;;1.75;100.00;98796.09;6283934;20;2883683;-51
2022/12/16 00:16:42;;;;;;;;;70.00;54.67;;;;;1.84;100.00;98805.44;6315069;20;3636712;-50
2022/12/16 00:19:11;;;;;;;;;53.00;44.00;;;;;1.77;100.00;98804.00;6312657;20;2852396;-52
2022/12/16 00:21:40;;;;;;;;;68.00;50.67;;;;;1.78;100.00;98803.06;6283325;20;2876417;-52
2022/12/16 00:24:09;;;;;;;;;55.50;45.00;;;;;1.83;100.00;98798.44;6312850;20;2856654;-52
2022/12/16 00:26:38;;;;;;;;;65.00;39.67;;;;;1.77;100.00;98790.75;6282755;20;3625254;-51
2022/12/16 00:29:09;;;;;;;;;60.50;46.00;;;;;1.92;100.00;98792.78;6312706;20;2879426;-52
2022/12/16 00:31:39;;;;;;;;;64.33;49.33;;;;;1.61;100.00;98789.66;6283610;20;3619117;-51
2022/12/16 00:34:08;;;;;;;;;58.50;45.50;;;;;1.85;100.00;98796.59;6312962;20;2863845;-51
2022/12/16 00:36:37;;;;;;;;;63.33;47.67;;;;;1.86;100.00;98793.03;6282942;20;2872153;-50
2022/12/16 00:39:07;;;;;;;;;54.67;40.00;;;;;2.02;100.00;98795.03;6313359;20;2868114;-49
2022/12/16 00:41:36;;;;;;;;;60.50;46.00;;;;;1.81;100.00;98800.28;6314873;20;2856662;-52
2022/12/16 00:44:05;;;;;;;;;58.50;45.50;;;;;2.07;100.00;98801.00;6281895;20;2873365;-54
2022/12/16 00:46:34;;;;;;;;;58.00;45.00;;;;;1.97;100.00;98808.47;6282930;20;2872329;-51
2022/12/16 00:49:03;;;;;;;;;56.50;43.00;;;;;1.85;100.00;98801.03;6281641;20;2853430;-51
2022/12/16 00:51:32;;;;;;;;;61.00;46.00;;;;;2.00;100.00;98805.69;6281759;20;2873200;-50
2022/12/16 00:54:00;;;;;;;;;53.50;44.50;;;;;2.03;100.00;98796.75;6277039;20;2852467;-51
2022/12/16 00:56:29;;;;;;;;;45.00;42.00;;;;;1.86;100.00;98792.16;6279788;20;2847233;-51
2022/12/16 00:58:57;;;;;;;;;53.50;43.00;;;;;1.97;100.00;98787.28;6276645;20;2493127;-49
2022/12/16 01:01:25;;;;;;;;;60.00;48.50;;;;;1.89;100.00;98787.59;6283436;20;2858681;-49
2022/12/16 01:03:57;;;;;;;;;53.00;43.50;;;;;1.98;100.00;98779.28;6280762;20;2879491;-49
2022/12/16 01:06:27;;;;;;;;;41.33;39.00;;;;;2.04;100.00;98779.97;6282085;20;2854590;-49
2022/12/16 01:08:57;;;;;;;;;45.00;39.00;;;;;1.96;100.00;98777.63;6310204;20;2862986;-50
2022/12/16 01:11:24;;;;;;;;;41.00;31.50;;;;;1.96;100.00;98769.69;6311519;20;2862842;-51
2022/12/16 01:13:54;;;;;;;;;50.00;39.00;;;;;2.02;100.00;98761.50;6276546;20;3619069;-51
2022/12/16 01:16:23;;;;;;;;;46.00;36.00;;;;;1.90;100.00;98746.13;6310974;20;2870163;-50
2022/12/16 01:18:55;;;;;;;;;44.33;39.33;;;;;2.01;100.00;98743.03;6277383;20;2859727;-49
2022/12/16 01:21:23;;;;;;;;;44.00;34.50;;;;;2.06;100.00;98735.75;6311075;20;2848258;-51
2022/12/16 01:23:52;;;;;;;;;46.50;38.00;;;;;1.88;100.00;98727.66;6279256;20;2866042;-49
2022/12/16 01:26:23;;;;;;;;;54.00;39.33;;;;;1.75;100.00;98719.38;6280164;20;3619001;-51
2022/12/16 01:28:52;;;;;;;;;44.50;39.00;;;;;2.02;100.00;98719.13;6307053;20;2850278;-48
2022/12/16 01:31:23;;;;;;;;;40.00;37.50;;;;;2.05;100.00;98724.28;6283495;20;2862802;-53
2022/12/16 01:33:53;;;;;;;;;43.67;35.00;;;;;2.10;100.00;98716.16;6277564;20;2878512;-49
2022/12/16 01:36:22;;;;;;;;;37.00;33.50;;;;;2.04;100.00;98711.13;6311823;20;2855482;-49
2022/12/16 01:38:51;;;;;;;;;35.50;28.50;;;;;1.97;100.00;98698.16;6277016;20;2856567;-49
2022/12/16 01:41:22;;;;;;;;;44.67;36.00;;;;;1.98;100.00;98691.09;6278547;20;3612731;-52
2022/12/16 01:43:51;;;;;;;;;39.67;32.67;;;;;1.94;100.00;98684.19;6312107;20;2875301;-49
2022/12/16 01:46:24;;;;;;;;;31.50;27.00;;;;;2.03;100.00;98681.16;6307826;20;2500329;-50
2022/12/16 01:49:07;;;;;;;;;36.00;31.50;;;;;2.02;100.00;98671.47;6281152;20;2844099;-48
2022/12/16 01:51:42;;;;;;;;;39.33;33.00;;;;;2.07;100.00;98668.63;6279622;20;2875428;-52
2022/12/16 01:54:36;;;;;;;;;43.33;35.33;;;;;2.02;100.00;98668.84;6306445;20;2871197;-48
2022/12/16 01:57:15;;;;;;;;;41.00;32.00;;;;;2.03;100.00;98667.94;6310993;20;2854480;-50
2022/12/16 01:59:47;;;;;;;;;26.00;26.00;;;;;1.92;100.00;98659.56;6273923;20;2500375;-51
2022/12/16 02:02:17;;;;;;;;;37.00;21.67;;;;;1.89;100.00;98647.31;6278322;20;3597178;-50
2022/12/16 02:07:33;;;;;;;;;37.50;33.00;;;;;2.01;100.00;98640.66;6278719;20;2851553;-48
2022/12/16 02:10:03;;;;;;;;;34.67;23.33;;;;;1.89;100.00;98634.09;6276436;20;2873303;-51
2022/12/16 02:13:03;;;;;;;;;35.00;30.00;;;;;2.05;100.00;98630.78;6311661;20;2835720;-51
2022/12/16 02:16:01;;;;;;;;;33.50;33.50;;;;;1.81;100.00;98625.63;6275820;20;2861242;-47
2022/12/16 02:19:16;;;;;;;;;29.67;25.67;;;;;2.05;100.00;98606.94;6276538;20;3587761;-48
2022/12/16 02:22:44;;;;;;;;;18.00;14.50;;;;;2.00;100.00;98587.75;6278581;20;2810841;-53
2022/12/16 02:25:54;;;;;;;;;43.50;36.50;;;;;2.02;100.00;98580.63;6273920;20;2864900;-51
2022/12/16 02:29:02;;;;;;;;;16.14;15.57;;;;;1.93;100.00;98558.94;6320167;20;1804511;-52
2022/12/16 02:31:50;;;;;;;;;24.50;22.50;;;;;1.97;100.00;98557.88;6311173;20;2822174;-48
2022/12/16 02:35:05;;;;;;;;;42.33;34.67;;;;;1.98;100.00;98553.44;6275223;20;2875376;-52
2022/12/16 02:38:08;;;;;;;;;34.50;32.50;;;;;1.98;100.00;98554.28;6317412;20;2868015;-54
2022/12/16 02:41:01;;;;;;;;;31.00;27.00;;;;;2.05;100.00;98546.91;6282681;20;2841148;-53
2022/12/16 02:44:02;;;;;;;;;40.33;30.67;;;;;2.07;100.00;98536.28;6282548;20;2873194;-49
2022/12/16 02:46:41;;;;;;;;;26.67;26.33;;;;;2.12;100.00;98540.41;6311281;20;3577491;-50
2022/12/16 02:49:12;;;;;;;;;27.00;24.67;;;;;2.03;100.00;98527.63;6282243;20;3579459;-53
2022/12/16 02:51:41;;;;;;;;;42.50;33.00;;;;;2.04;100.00;98517.88;6280528;20;2504441;-53
2022/12/16 02:54:11;;;;;;;;;40.50;38.00;;;;;2.02;100.00;98511.78;6278488;20;2851496;-52
2022/12/16 02:57:08;;;;;;;;;33.00;26.50;;;;;2.01;100.00;98512.75;6282275;20;2855623;-50
2022/12/16 03:00:19;;;;;;;;;39.00;31.50;;;;;2.04;100.00;98507.28;6282744;20;2855553;-51
2022/12/16 03:02:55;;;;;;;;;26.00;22.50;;;;;2.04;100.00;98515.25;6283649;20;2846123;-51
2022/12/16 03:05:39;;;;;;;;;42.50;36.50;;;;;2.17;100.00;98513.75;6284013;20;2865921;-51
2022/12/16 03:08:26;;;;;;;;;37.67;31.33;;;;;2.22;100.00;98524.97;6283200;20;2865011;-52
2022/12/16 03:11:04;;;;;;;;;45.00;36.33;;;;;2.28;100.00;98510.59;6313550;20;2864886;-53
2022/12/16 03:13:46;;;;;;;;;48.00;40.50;;;;;2.28;100.00;98524.69;6312386;20;2860801;-51
2022/12/16 03:16:21;;;;;;;;;48.67;39.67;;;;;2.13;100.00;98528.03;6281077;20;2853556;-55
2022/12/16 03:19:05;;;;;;;;;35.00;25.00;;;;;2.24;100.00;98512.53;6309299;20;2500466;-53
2022/12/16 03:22:01;;;;;;;;;53.00;40.50;;;;;2.34;100.00;98503.22;6281472;20;2849287;-52
2022/12/16 03:24:31;;;;;;;;;48.00;38.00;;;;;2.36;100.00;98517.22;6281098;20;2864857;-52
2022/12/16 03:27:36;;;;;;;;;45.67;41.00;;;;;2.38;100.00;98520.69;6311190;20;2861732;-53
2022/12/16 03:30:26;;;;;;;;;47.33;37.00;;;;;2.47;100.00;98513.22;6311000;20;3608627;-51
2022/12/16 03:33:27;;;;;;;;;38.50;34.00;;;;;2.54;100.00;98493.47;6314131;20;2858649;-53
2022/12/16 03:36:16;;;;;;;;;44.33;36.67;;;;;2.38;100.00;98469.50;6283009;20;2868067;-50
2022/12/16 03:38:47;;;;;;;;;40.67;33.33;;;;;2.39;100.00;98481.81;6311243;20;2870132;-53
2022/12/16 03:41:19;;;;;;;;;58.50;41.50;;;;;2.50;100.00;98470.69;6310634;20;2873230;-51
2022/12/16 03:43:49;;;;;;;;;57.00;44.50;;;;;2.45;100.00;98456.81;6279988;20;2869079;-54
2022/12/16 03:46:18;;;;;;;;;54.00;44.50;;;;;2.60;100.00;98458.72;6279421;20;2877409;-50
2022/12/16 03:48:50;;;;;;;;;59.33;44.00;;;;;2.64;100.00;98465.59;6280807;20;2872193;-54
2022/12/16 03:51:20;;;;;;;;;67.33;52.33;;;;;2.58;100.00;98457.91;6313991;20;3628497;-52
2022/12/16 03:53:49;;;;;;;;;58.00;48.50;;;;;2.58;100.00;98458.81;6314981;20;2856523;-52
2022/12/16 03:56:18;;;;;;;;;65.00;52.00;;;;;2.61;100.00;98487.78;6283219;20;3624305;-54
2022/12/16 03:58:48;;;;;;;;;73.00;54.33;;;;;2.71;100.00;98504.09;6314069;20;2894229;-52
2022/12/16 04:01:17;;;;;;;;;88.00;61.00;;;;;2.71;100.00;98501.44;6314877;20;3643097;-53
2022/12/16 04:03:47;;;;;;;;;99.00;82.33;;;;;2.68;100.00;98491.00;6315886;20;3670153;-49
2022/12/16 04:06:17;;;;;;;;;77.00;60.67;;;;;2.68;100.00;98491.00;6278619;20;2881727;-51
2022/12/16 04:08:47;;;;;;;;;107.75;86.75;;;;;2.89;100.00;98485.56;6314208;20;4439848;-54
2022/12/16 04:25:35;;;;;;;;;61.67;48.67;;;;;2.85;100.00;98442.47;6309220;20;2872167;-52
2022/12/16 04:28:03;;;;;;;;;62.50;50.00;;;;;2.92;100.00;98440.34;6310493;20;2858652;-51
2022/12/16 04:30:33;;;;;;;;;63.00;49.33;;;;;2.73;100.00;98419.22;6276755;20;2871931;-53
